Main page
METAR-TAF:

METAR-TAF

Airports :

Novosibirsk, Russia

Tolmachevo Airport

latitude: 55-01N, longitude: 082-38E, elevation: 111 m

Current weather observation

The report was made 21 minutes ago, at 13:30 UTC
Wind 2 kt from the North
Temperature 19°C
Humidity 64%
Pressure 1025 hPa
Visibility 10 km or more
no clouds below 1500 m and no cumulonimbus

METAR: UNNT 231330Z 36001MPS CAVOK 19/12 Q1025 R25/090070 R34/090070 NOSIG RMK QFE759/1012

Time: 20:51 (13:51 UTC)

Forecast

The report was made 2 hours and 51 minutes ago, at 11:00 UTC
Forecast valid from 23 at 12 UTC to 24 at 12 UTC
Wind 10 kt from the North/Northwest
Visibility 10 km or more
Scattered clouds at a height of 4000 ft
Becoming
from 23 at 12 UTC to 23 at 14 UTC
Wind 6 kt from the West
Temporary
from 23 at 18 UTC to 24 at 02 UTC
Visibility: 1500 m
Scattered clouds at a height of 300 ft
mist

TAF: UNNT 231100Z 2312/2412 34005MPS 9999 SCT040 BECMG 2312/2314 27003MPS TEMPO 2318/2402 1500 BR SCT003

Weather observations and forecasts of more than 4000 airports (METAR and TAF reports).

The available stations are represented by yellow and red dots on the map.

Hover mouse over dot to see the name of the station.

Then click to see weather observations and forecasts.

To change the map : click on the green buttons with a black cross to zoom in, on the green button with a dash to zoom out, or on the green arrows for adjacent maps.


METAR-TAF: